sensor_id;sensor_type;location;lat;lon;timestamp;temperature;humidity
52203;DHT22;38173;52.850;6.970;2023-03-29T00:01:13;5.10;99.90
52203;DHT22;38173;52.850;6.970;2023-03-29T00:03:39;5.10;99.90
52203;DHT22;38173;52.850;6.970;2023-03-29T00:06:08;5.10;99.90
52203;DHT22;38173;52.850;6.970;2023-03-29T00:08:39;5.10;99.90
52203;DHT22;38173;52.850;6.970;2023-03-29T00:11:05;5.00;99.90
52203;DHT22;38173;52.850;6.970;2023-03-29T00:13:31;5.00;99.90
52203;DHT22;38173;52.850;6.970;2023-03-29T00:15:57;5.00;99.90
52203;DHT22;38173;52.850;6.970;2023-03-29T00:18:24;5.00;99.90
52203;DHT22;38173;52.850;6.970;2023-03-29T00:20:56;5.00;99.90
52203;DHT22;38173;52.850;6.970;2023-03-29T00:23:22;5.00;99.90
52203;DHT22;38173;52.850;6.970;2023-03-29T00:25:49;5.00;99.90
52203;DHT22;38173;52.850;6.970;2023-03-29T00:28:18;5.00;99.90
52203;DHT22;38173;52.850;6.970;2023-03-29T00:30:44;5.00;99.90
52203;DHT22;38173;52.850;6.970;2023-03-29T00:33:10;5.00;99.90
52203;DHT22;38173;52.850;6.970;2023-03-29T00:35:39;5.00;99.90
52203;DHT22;38173;52.850;6.970;2023-03-29T00:38:05;5.00;99.90
52203;DHT22;38173;52.850;6.970;2023-03-29T00:40:31;5.00;99.90
52203;DHT22;38173;52.850;6.970;2023-03-29T00:42:57;5.00;99.90
52203;DHT22;38173;52.850;6.970;2023-03-29T00:45:23;4.90;99.90
52203;DHT22;38173;52.850;6.970;2023-03-29T00:47:59;4.90;99.90
52203;DHT22;38173;52.850;6.970;2023-03-29T00:52:55;4.90;99.90
52203;DHT22;38173;52.850;6.970;2023-03-29T00:55:26;4.90;99.90
52203;DHT22;38173;52.850;6.970;2023-03-29T00:57:52;4.90;99.90
52203;DHT22;38173;52.850;6.970;2023-03-29T01:00:20;4.90;99.90
52203;DHT22;38173;52.850;6.970;2023-03-29T01:02:48;4.90;99.90
52203;DHT22;38173;52.850;6.970;2023-03-29T01:05:28;4.90;99.90
52203;DHT22;38173;52.850;6.970;2023-03-29T01:08:05;4.90;99.90
52203;DHT22;38173;52.850;6.970;2023-03-29T01:10:38;4.90;99.90
52203;DHT22;38173;52.850;6.970;2023-03-29T01:13:06;4.90;99.90
52203;DHT22;38173;52.850;6.970;2023-03-29T01:15:33;4.90;99.90
52203;DHT22;38173;52.850;6.970;2023-03-29T01:17:59;4.90;99.90
52203;DHT22;38173;52.850;6.970;2023-03-29T01:28:10;4.90;99.90
52203;DHT22;38173;52.850;6.970;2023-03-29T01:30:39;4.90;99.90
52203;DHT22;38173;52.850;6.970;2023-03-29T01:33:29;4.90;99.90
52203;DHT22;38173;52.850;6.970;2023-03-29T01:36:26;4.80;99.90
52203;DHT22;38173;52.850;6.970;2023-03-29T01:38:59;4.90;99.90
52203;DHT22;38173;52.850;6.970;2023-03-29T01:41:40;4.90;99.90
52203;DHT22;38173;52.850;6.970;2023-03-29T01:44:23;4.80;99.90
52203;DHT22;38173;52.850;6.970;2023-03-29T01:46:51;4.80;99.90
52203;DHT22;38173;52.850;6.970;2023-03-29T01:49:24;4.80;99.90
52203;DHT22;38173;52.850;6.970;2023-03-29T01:52:39;4.90;99.90
52203;DHT22;38173;52.850;6.970;2023-03-29T01:54:59;4.80;99.90
52203;DHT22;38173;52.850;6.970;2023-03-29T01:57:27;4.90;99.90
52203;DHT22;38173;52.850;6.970;2023-03-29T01:59:53;4.80;99.90
52203;DHT22;38173;52.850;6.970;2023-03-29T02:02:23;4.90;99.90
52203;DHT22;38173;52.850;6.970;2023-03-29T02:04:52;4.90;99.90
52203;DHT22;38173;52.850;6.970;2023-03-29T02:07:19;4.90;99.90
52203;DHT22;38173;52.850;6.970;2023-03-29T02:09:45;4.90;99.90
52203;DHT22;38173;52.850;6.970;2023-03-29T02:12:11;4.80;99.90
52203;DHT22;38173;52.850;6.970;2023-03-29T02:14:37;4.90;99.90
52203;DHT22;38173;52.850;6.970;2023-03-29T02:17:21;4.80;99.90
52203;DHT22;38173;52.850;6.970;2023-03-29T02:19:58;4.90;99.90
52203;DHT22;38173;52.850;6.970;2023-03-29T02:22:33;4.80;99.90
52203;DHT22;38173;52.850;6.970;2023-03-29T02:25:01;4.80;99.90
52203;DHT22;38173;52.850;6.970;2023-03-29T02:27:34;4.80;99.90
52203;DHT22;38173;52.850;6.970;2023-03-29T02:30:02;4.90;99.90
52203;DHT22;38173;52.850;6.970;2023-03-29T02:35:03;4.80;99.90
52203;DHT22;38173;52.850;6.970;2023-03-29T02:37:31;4.80;99.90
52203;DHT22;38173;52.850;6.970;2023-03-29T02:39:58;4.80;99.90
52203;DHT22;38173;52.850;6.970;2023-03-29T02:42:24;4.80;99.90
52203;DHT22;38173;52.850;6.970;2023-03-29T02:44:51;4.80;99.90
52203;DHT22;38173;52.850;6.970;2023-03-29T02:47:24;4.80;99.90
52203;DHT22;38173;52.850;6.970;2023-03-29T02:49:51;4.80;99.90
52203;DHT22;38173;52.850;6.970;2023-03-29T02:52:20;4.80;99.90
52203;DHT22;38173;52.850;6.970;2023-03-29T02:54:48;4.80;99.90
52203;DHT22;38173;52.850;6.970;2023-03-29T02:57:20;4.80;99.90
52203;DHT22;38173;52.850;6.970;2023-03-29T02:59:51;4.80;99.90
52203;DHT22;38173;52.850;6.970;2023-03-29T03:02:17;4.80;99.90
52203;DHT22;38173;52.850;6.970;2023-03-29T03:04:43;4.80;99.90
52203;DHT22;38173;52.850;6.970;2023-03-29T03:07:18;4.80;99.90
52203;DHT22;38173;52.850;6.970;2023-03-29T03:09:49;4.80;99.90
52203;DHT22;38173;52.850;6.970;2023-03-29T03:12:15;4.80;99.90
52203;DHT22;38173;52.850;6.970;2023-03-29T03:14:41;4.80;99.90
52203;DHT22;38173;52.850;6.970;2023-03-29T03:17:06;4.80;99.90
52203;DHT22;38173;52.850;6.970;2023-03-29T03:19:32;4.80;99.90
52203;DHT22;38173;52.850;6.970;2023-03-29T03:21:58;4.90;99.90
52203;DHT22;38173;52.850;6.970;2023-03-29T03:24:24;4.90;99.90
52203;DHT22;38173;52.850;6.970;2023-03-29T03:26:50;4.80;99.90
52203;DHT22;38173;52.850;6.970;2023-03-29T03:29:25;4.80;99.90
52203;DHT22;38173;52.850;6.970;2023-03-29T03:31:50;4.90;99.90
52203;DHT22;38173;52.850;6.970;2023-03-29T03:34:20;4.90;99.90
52203;DHT22;38173;52.850;6.970;2023-03-29T03:36:45;4.90;99.90
52203;DHT22;38173;52.850;6.970;2023-03-29T03:39:15;4.90;99.90
52203;DHT22;38173;52.850;6.970;2023-03-29T03:41:42;4.90;99.90
52203;DHT22;38173;52.850;6.970;2023-03-29T03:44:07;4.90;99.90
52203;DHT22;38173;52.850;6.970;2023-03-29T03:46:33;4.90;99.90
52203;DHT22;38173;52.850;6.970;2023-03-29T03:48:59;4.90;99.90
52203;DHT22;38173;52.850;6.970;2023-03-29T03:51:24;5.00;99.90
52203;DHT22;38173;52.850;6.970;2023-03-29T03:53:50;4.90;99.90
52203;DHT22;38173;52.850;6.970;2023-03-29T03:56:16;4.90;99.90
52203;DHT22;38173;52.850;6.970;2023-03-29T03:58:42;4.90;99.90
52203;DHT22;38173;52.850;6.970;2023-03-29T04:01:08;4.90;99.90
52203;DHT22;38173;52.850;6.970;2023-03-29T04:03:34;4.90;99.90
52203;DHT22;38173;52.850;6.970;2023-03-29T04:06:04;4.90;99.90
52203;DHT22;38173;52.850;6.970;2023-03-29T04:08:30;4.90;99.90
52203;DHT22;38173;52.850;6.970;2023-03-29T04:10:56;4.90;99.90
52203;DHT22;38173;52.850;6.970;2023-03-29T04:13:23;4.90;99.90
52203;DHT22;38173;52.850;6.970;2023-03-29T04:15:48;4.90;99.90
52203;DHT22;38173;52.850;6.970;2023-03-29T04:18:18;5.00;99.90
52203;DHT22;38173;52.850;6.970;2023-03-29T04:20:45;5.00;99.90
52203;DHT22;38173;52.850;6.970;2023-03-29T04:23:11;4.90;99.90
52203;DHT22;38173;52.850;6.970;2023-03-29T04:25:37;4.90;99.90
52203;DHT22;38173;52.850;6.970;2023-03-29T04:28:03;4.90;99.90
52203;DHT22;38173;52.850;6.970;2023-03-29T04:30:32;5.00;99.90
52203;DHT22;38173;52.850;6.970;2023-03-29T04:32:58;5.00;99.90
52203;DHT22;38173;52.850;6.970;2023-03-29T04:35:24;5.00;99.90
52203;DHT22;38173;52.850;6.970;2023-03-29T04:37:55;5.00;99.90
52203;DHT22;38173;52.850;6.970;2023-03-29T04:40:21;5.00;99.90
52203;DHT22;38173;52.850;6.970;2023-03-29T04:42:47;5.00;99.90
52203;DHT22;38173;52.850;6.970;2023-03-29T04:45:13;5.00;99.90
52203;DHT22;38173;52.850;6.970;2023-03-29T04:47:42;5.00;99.90
52203;DHT22;38173;52.850;6.970;2023-03-29T04:50:12;5.00;99.90
52203;DHT22;38173;52.850;6.970;2023-03-29T04:52:38;5.00;99.90
52203;DHT22;38173;52.850;6.970;2023-03-29T04:55:04;5.00;99.90
52203;DHT22;38173;52.850;6.970;2023-03-29T04:57:31;4.90;99.90
52203;DHT22;38173;52.850;6.970;2023-03-29T04:59:57;5.00;99.90
52203;DHT22;38173;52.850;6.970;2023-03-29T05:02:23;5.00;99.90
52203;DHT22;38173;52.850;6.970;2023-03-29T05:04:49;5.00;99.90
52203;DHT22;38173;52.850;6.970;2023-03-29T05:07:15;5.00;99.90
52203;DHT22;38173;52.850;6.970;2023-03-29T05:09:42;5.00;99.90
52203;DHT22;38173;52.850;6.970;2023-03-29T05:12:09;5.00;99.90
52203;DHT22;38173;52.850;6.970;2023-03-29T05:14:35;5.10;99.90
52203;DHT22;38173;52.850;6.970;2023-03-29T05:17:01;5.10;99.90
52203;DHT22;38173;52.850;6.970;2023-03-29T05:19:27;5.10;99.90
52203;DHT22;38173;52.850;6.970;2023-03-29T05:21:53;5.10;99.90
52203;DHT22;38173;52.850;6.970;2023-03-29T05:24:18;5.10;99.90
52203;DHT22;38173;52.850;6.970;2023-03-29T05:26:45;5.10;99.90
52203;DHT22;38173;52.850;6.970;2023-03-29T05:29:12;5.20;99.90
52203;DHT22;38173;52.850;6.970;2023-03-29T05:31:38;5.20;99.90
52203;DHT22;38173;52.850;6.970;2023-03-29T05:34:07;5.20;99.90
52203;DHT22;38173;52.850;6.970;2023-03-29T05:36:34;5.20;99.90
52203;DHT22;38173;52.850;6.970;2023-03-29T05:38:59;5.20;99.90
52203;DHT22;38173;52.850;6.970;2023-03-29T05:41:26;5.20;99.90
52203;DHT22;38173;52.850;6.970;2023-03-29T05:43:52;5.20;99.90
52203;DHT22;38173;52.850;6.970;2023-03-29T05:46:17;5.20;99.90
52203;DHT22;38173;52.850;6.970;2023-03-29T05:48:43;5.20;99.90
52203;DHT22;38173;52.850;6.970;2023-03-29T05:51:09;5.20;99.90
52203;DHT22;38173;52.850;6.970;2023-03-29T05:53:34;5.20;99.90
52203;DHT22;38173;52.850;6.970;2023-03-29T05:56:00;5.20;99.90
52203;DHT22;38173;52.850;6.970;2023-03-29T05:58:26;5.20;99.90
52203;DHT22;38173;52.850;6.970;2023-03-29T06:00:53;5.10;99.90
52203;DHT22;38173;52.850;6.970;2023-03-29T06:03:21;5.10;99.90
52203;DHT22;38173;52.850;6.970;2023-03-29T06:05:48;5.10;99.90
52203;DHT22;38173;52.850;6.970;2023-03-29T06:08:15;5.10;99.90
52203;DHT22;38173;52.850;6.970;2023-03-29T06:10:42;5.10;99.90
52203;DHT22;38173;52.850;6.970;2023-03-29T06:13:08;5.10;99.90
52203;DHT22;38173;52.850;6.970;2023-03-29T06:15:35;5.10;99.90
52203;DHT22;38173;52.850;6.970;2023-03-29T06:18:01;5.10;99.90
52203;DHT22;38173;52.850;6.970;2023-03-29T06:20:28;5.10;99.90
52203;DHT22;38173;52.850;6.970;2023-03-29T06:23:03;5.10;99.90
52203;DHT22;38173;52.850;6.970;2023-03-29T06:25:29;5.10;99.90
52203;DHT22;38173;52.850;6.970;2023-03-29T06:27:56;5.20;99.90
52203;DHT22;38173;52.850;6.970;2023-03-29T06:30:22;5.20;99.90
52203;DHT22;38173;52.850;6.970;2023-03-29T06:32:50;5.20;99.90
52203;DHT22;38173;52.850;6.970;2023-03-29T06:35:16;5.20;99.90
52203;DHT22;38173;52.850;6.970;2023-03-29T06:37:42;5.20;99.90
52203;DHT22;38173;52.850;6.970;2023-03-29T06:40:14;5.30;99.90
52203;DHT22;38173;52.850;6.970;2023-03-29T06:42:42;5.30;99.90
52203;DHT22;38173;52.850;6.970;2023-03-29T06:45:08;5.30;99.90
52203;DHT22;38173;52.850;6.970;2023-03-29T06:47:38;5.30;99.90
52203;DHT22;38173;52.850;6.970;2023-03-29T06:50:05;5.30;99.90
52203;DHT22;38173;52.850;6.970;2023-03-29T06:52:32;5.40;99.90
52203;DHT22;38173;52.850;6.970;2023-03-29T06:54:58;5.30;99.90
52203;DHT22;38173;52.850;6.970;2023-03-29T06:57:26;5.40;99.90
52203;DHT22;38173;52.850;6.970;2023-03-29T06:59:52;5.40;99.90
52203;DHT22;38173;52.850;6.970;2023-03-29T07:02:19;5.40;99.90
52203;DHT22;38173;52.850;6.970;2023-03-29T07:04:44;5.50;99.90
52203;DHT22;38173;52.850;6.970;2023-03-29T07:07:10;5.50;99.90
52203;DHT22;38173;52.850;6.970;2023-03-29T07:09:44;5.60;99.90
52203;DHT22;38173;52.850;6.970;2023-03-29T07:12:11;5.60;99.90
52203;DHT22;38173;52.850;6.970;2023-03-29T07:14:43;5.70;99.90
52203;DHT22;38173;52.850;6.970;2023-03-29T07:17:13;5.70;99.90
52203;DHT22;38173;52.850;6.970;2023-03-29T07:19:39;5.80;99.90
52203;DHT22;38173;52.850;6.970;2023-03-29T07:22:04;5.80;99.90
52203;DHT22;38173;52.850;6.970;2023-03-29T07:24:30;5.90;99.90
52203;DHT22;38173;52.850;6.970;2023-03-29T07:26:56;5.90;99.90
52203;DHT22;38173;52.850;6.970;2023-03-29T07:29:22;5.90;99.90
52203;DHT22;38173;52.850;6.970;2023-03-29T07:31:48;5.90;99.90
52203;DHT22;38173;52.850;6.970;2023-03-29T07:34:15;6.00;99.90
52203;DHT22;38173;52.850;6.970;2023-03-29T07:36:49;6.00;99.90
52203;DHT22;38173;52.850;6.970;2023-03-29T07:39:14;6.00;99.90
52203;DHT22;38173;52.850;6.970;2023-03-29T07:41:40;6.10;99.90
52203;DHT22;38173;52.850;6.970;2023-03-29T07:44:06;6.10;99.90
52203;DHT22;38173;52.850;6.970;2023-03-29T07:46:34;6.10;99.90
52203;DHT22;38173;52.850;6.970;2023-03-29T07:49:00;6.10;99.90
52203;DHT22;38173;52.850;6.970;2023-03-29T07:51:26;6.20;99.90
52203;DHT22;38173;52.850;6.970;2023-03-29T07:53:52;6.30;99.90
52203;DHT22;38173;52.850;6.970;2023-03-29T07:56:18;6.30;99.90
52203;DHT22;38173;52.850;6.970;2023-03-29T07:58:44;6.40;99.90
52203;DHT22;38173;52.850;6.970;2023-03-29T08:01:11;6.40;99.90
52203;DHT22;38173;52.850;6.970;2023-03-29T08:03:40;6.50;99.90
52203;DHT22;38173;52.850;6.970;2023-03-29T08:06:15;6.50;99.90
52203;DHT22;38173;52.850;6.970;2023-03-29T08:08:41;6.50;99.90
52203;DHT22;38173;52.850;6.970;2023-03-29T08:11:06;6.60;99.90
52203;DHT22;38173;52.850;6.970;2023-03-29T08:13:34;6.60;99.90
52203;DHT22;38173;52.850;6.970;2023-03-29T08:16:01;6.60;99.90
52203;DHT22;38173;52.850;6.970;2023-03-29T08:18:26;6.60;99.90
52203;DHT22;38173;52.850;6.970;2023-03-29T08:20:52;6.70;99.90
52203;DHT22;38173;52.850;6.970;2023-03-29T08:23:17;6.70;99.90
52203;DHT22;38173;52.850;6.970;2023-03-29T08:25:44;6.70;99.90
52203;DHT22;38173;52.850;6.970;2023-03-29T08:28:10;6.80;99.90
52203;DHT22;38173;52.850;6.970;2023-03-29T08:30:35;6.80;99.90
52203;DHT22;38173;52.850;6.970;2023-03-29T08:33:01;6.80;99.90
52203;DHT22;38173;52.850;6.970;2023-03-29T08:35:27;6.90;99.90
52203;DHT22;38173;52.850;6.970;2023-03-29T08:37:53;6.90;99.90
52203;DHT22;38173;52.850;6.970;2023-03-29T08:40:20;6.90;99.90
52203;DHT22;38173;52.850;6.970;2023-03-29T08:48:02;7.10;99.90
52203;DHT22;38173;52.850;6.970;2023-03-29T08:50:35;7.10;99.90
52203;DHT22;38173;52.850;6.970;2023-03-29T08:53:12;7.20;99.90
52203;DHT22;38173;52.850;6.970;2023-03-29T08:55:44;7.30;99.90
52203;DHT22;38173;52.850;6.970;2023-03-29T08:58:14;7.40;99.90
52203;DHT22;38173;52.850;6.970;2023-03-29T09:00:42;7.50;99.90
52203;DHT22;38173;52.850;6.970;2023-03-29T09:03:10;7.70;99.90
52203;DHT22;38173;52.850;6.970;2023-03-29T09:05:42;7.80;99.90
52203;DHT22;38173;52.850;6.970;2023-03-29T09:08:11;7.90;99.90
52203;DHT22;38173;52.850;6.970;2023-03-29T09:10:51;8.00;99.90
52203;DHT22;38173;52.850;6.970;2023-03-29T09:13:28;8.10;99.90
52203;DHT22;38173;52.850;6.970;2023-03-29T09:16:36;8.20;99.90
52203;DHT22;38173;52.850;6.970;2023-03-29T09:21:56;8.40;99.90
52203;DHT22;38173;52.850;6.970;2023-03-29T09:26:58;8.70;99.90
52203;DHT22;38173;52.850;6.970;2023-03-29T09:32:18;9.00;99.90
52203;DHT22;38173;52.850;6.970;2023-03-29T09:34:48;9.20;99.90
52203;DHT22;38173;52.850;6.970;2023-03-29T09:37:24;9.30;99.90
52203;DHT22;38173;52.850;6.970;2023-03-29T09:39:58;9.50;99.90
52203;DHT22;38173;52.850;6.970;2023-03-29T09:42:30;9.60;99.90
52203;DHT22;38173;52.850;6.970;2023-03-29T09:45:09;9.70;99.90
52203;DHT22;38173;52.850;6.970;2023-03-29T09:47:38;9.70;99.90
52203;DHT22;38173;52.850;6.970;2023-03-29T09:50:14;9.80;99.90
52203;DHT22;38173;52.850;6.970;2023-03-29T09:52:43;9.80;99.90
52203;DHT22;38173;52.850;6.970;2023-03-29T09:55:12;9.90;99.90
52203;DHT22;38173;52.850;6.970;2023-03-29T09:57:38;10.00;99.90
52203;DHT22;38173;52.850;6.970;2023-03-29T10:00:05;10.00;99.90
52203;DHT22;38173;52.850;6.970;2023-03-29T10:02:31;10.20;99.90
52203;DHT22;38173;52.850;6.970;2023-03-29T10:04:57;10.30;99.90
52203;DHT22;38173;52.850;6.970;2023-03-29T10:07:31;10.40;99.90
52203;DHT22;38173;52.850;6.970;2023-03-29T10:09:58;10.50;99.90
52203;DHT22;38173;52.850;6.970;2023-03-29T10:12:24;10.50;99.90
52203;DHT22;38173;52.850;6.970;2023-03-29T10:14:52;10.60;99.90
52203;DHT22;38173;52.850;6.970;2023-03-29T10:17:22;10.60;99.90
52203;DHT22;38173;52.850;6.970;2023-03-29T10:20:01;10.60;99.90
52203;DHT22;38173;52.850;6.970;2023-03-29T10:22:34;10.60;99.90
52203;DHT22;38173;52.850;6.970;2023-03-29T10:25:02;10.70;99.90
52203;DHT22;38173;52.850;6.970;2023-03-29T10:27:29;10.80;99.90
52203;DHT22;38173;52.850;6.970;2023-03-29T10:29:56;10.80;99.90
52203;DHT22;38173;52.850;6.970;2023-03-29T10:32:30;10.90;99.90
52203;DHT22;38173;52.850;6.970;2023-03-29T10:35:08;11.00;99.90
52203;DHT22;38173;52.850;6.970;2023-03-29T10:37:38;11.10;99.90
52203;DHT22;38173;52.850;6.970;2023-03-29T10:40:25;11.20;99.90
52203;DHT22;38173;52.850;6.970;2023-03-29T10:42:51;11.20;99.90
52203;DHT22;38173;52.850;6.970;2023-03-29T10:47:53;11.30;99.90
52203;DHT22;38173;52.850;6.970;2023-03-29T10:50:19;11.20;99.90
52203;DHT22;38173;52.850;6.970;2023-03-29T10:52:44;11.30;99.90
52203;DHT22;38173;52.850;6.970;2023-03-29T10:55:13;11.40;99.90
52203;DHT22;38173;52.850;6.970;2023-03-29T10:57:54;11.60;99.90
52203;DHT22;38173;52.850;6.970;2023-03-29T11:00:24;11.60;99.90
52203;DHT22;38173;52.850;6.970;2023-03-29T11:02:58;11.70;99.90
52203;DHT22;38173;52.850;6.970;2023-03-29T11:05:36;11.80;99.90
52203;DHT22;38173;52.850;6.970;2023-03-29T11:08:18;11.90;99.90
52203;DHT22;38173;52.850;6.970;2023-03-29T11:13:33;12.20;99.90
52203;DHT22;38173;52.850;6.970;2023-03-29T11:18:34;12.40;99.90
52203;DHT22;38173;52.850;6.970;2023-03-29T11:29:22;12.50;99.90
52203;DHT22;38173;52.850;6.970;2023-03-29T11:31:57;12.50;99.90
52203;DHT22;38173;52.850;6.970;2023-03-29T11:37:02;12.40;99.90
52203;DHT22;38173;52.850;6.970;2023-03-29T11:42:24;12.50;99.90
52203;DHT22;38173;52.850;6.970;2023-03-29T11:44:53;12.50;99.90
52203;DHT22;38173;52.850;6.970;2023-03-29T11:47:23;12.60;99.90
52203;DHT22;38173;52.850;6.970;2023-03-29T11:49:55;12.70;99.90
52203;DHT22;38173;52.850;6.970;2023-03-29T11:55:04;12.90;99.90
52203;DHT22;38173;52.850;6.970;2023-03-29T11:57:43;13.00;99.90
52203;DHT22;38173;52.850;6.970;2023-03-29T12:00:18;13.10;99.90
52203;DHT22;38173;52.850;6.970;2023-03-29T12:02:49;13.20;99.90
52203;DHT22;38173;52.850;6.970;2023-03-29T12:05:20;13.30;99.90
52203;DHT22;38173;52.850;6.970;2023-03-29T12:07:49;13.40;99.90
52203;DHT22;38173;52.850;6.970;2023-03-29T12:10:18;13.40;99.90
52203;DHT22;38173;52.850;6.970;2023-03-29T12:13:02;13.40;99.90
52203;DHT22;38173;52.850;6.970;2023-03-29T12:15:37;13.40;99.90
52203;DHT22;38173;52.850;6.970;2023-03-29T12:20:57;13.50;99.90
52203;DHT22;38173;52.850;6.970;2023-03-29T12:23:24;13.50;99.90
52203;DHT22;38173;52.850;6.970;2023-03-29T12:38:34;14.30;99.90
52203;DHT22;38173;52.850;6.970;2023-03-29T12:41:08;14.60;99.90
52203;DHT22;38173;52.850;6.970;2023-03-29T12:43:38;14.60;99.90
52203;DHT22;38173;52.850;6.970;2023-03-29T12:46:06;14.80;99.90
52203;DHT22;38173;52.850;6.970;2023-03-29T12:48:32;15.00;99.90
52203;DHT22;38173;52.850;6.970;2023-03-29T12:51:02;14.90;99.90
52203;DHT22;38173;52.850;6.970;2023-03-29T13:01:21;14.80;99.90
52203;DHT22;38173;52.850;6.970;2023-03-29T13:03:49;14.70;99.90
52203;DHT22;38173;52.850;6.970;2023-03-29T13:09:18;14.40;99.90
52203;DHT22;38173;52.850;6.970;2023-03-29T13:11:56;14.30;99.90
52203;DHT22;38173;52.850;6.970;2023-03-29T13:14:24;14.30;99.90
52203;DHT22;38173;52.850;6.970;2023-03-29T13:16:52;14.30;99.90
52203;DHT22;38173;52.850;6.970;2023-03-29T13:22:06;14.20;99.90
52203;DHT22;38173;52.850;6.970;2023-03-29T13:29:32;14.00;99.90
52203;DHT22;38173;52.850;6.970;2023-03-29T13:34:45;14.00;99.90
52203;DHT22;38173;52.850;6.970;2023-03-29T13:37:35;14.00;99.90
52203;DHT22;38173;52.850;6.970;2023-03-29T13:40:26;14.00;99.90
52203;DHT22;38173;52.850;6.970;2023-03-29T13:42:59;13.90;99.90
52203;DHT22;38173;52.850;6.970;2023-03-29T13:45:29;13.90;99.90
52203;DHT22;38173;52.850;6.970;2023-03-29T13:48:04;13.90;99.90
52203;DHT22;38173;52.850;6.970;2023-03-29T13:50:49;13.90;99.90
52203;DHT22;38173;52.850;6.970;2023-03-29T13:53:25;13.90;99.90
52203;DHT22;38173;52.850;6.970;2023-03-29T13:55:52;13.90;99.90
52203;DHT22;38173;52.850;6.970;2023-03-29T13:58:39;14.00;99.90
52203;DHT22;38173;52.850;6.970;2023-03-29T14:01:16;13.90;99.90
52203;DHT22;38173;52.850;6.970;2023-03-29T14:03:46;13.90;99.90
52203;DHT22;38173;52.850;6.970;2023-03-29T14:06:14;13.80;99.90
52203;DHT22;38173;52.850;6.970;2023-03-29T14:08:44;13.80;99.90
52203;DHT22;38173;52.850;6.970;2023-03-29T14:11:14;13.80;99.90
52203;DHT22;38173;52.850;6.970;2023-03-29T14:13:43;13.90;99.90
52203;DHT22;38173;52.850;6.970;2023-03-29T14:16:09;14.10;99.90
52203;DHT22;38173;52.850;6.970;2023-03-29T14:18:36;14.10;99.90
52203;DHT22;38173;52.850;6.970;2023-03-29T14:21:03;14.10;99.90
52203;DHT22;38173;52.850;6.970;2023-03-29T14:23:34;14.10;99.90
52203;DHT22;38173;52.850;6.970;2023-03-29T14:28:35;14.00;99.90
52203;DHT22;38173;52.850;6.970;2023-03-29T14:31:02;14.00;99.90
52203;DHT22;38173;52.850;6.970;2023-03-29T14:33:29;13.90;99.90
52203;DHT22;38173;52.850;6.970;2023-03-29T14:35:56;13.80;99.90
52203;DHT22;38173;52.850;6.970;2023-03-29T14:38:22;13.70;99.90
52203;DHT22;38173;52.850;6.970;2023-03-29T14:40:49;13.70;99.90
52203;DHT22;38173;52.850;6.970;2023-03-29T14:43:19;13.60;99.90
52203;DHT22;38173;52.850;6.970;2023-03-29T14:45:47;13.40;99.90
52203;DHT22;38173;52.850;6.970;2023-03-29T14:48:13;13.40;99.90
52203;DHT22;38173;52.850;6.970;2023-03-29T14:50:39;13.20;99.90
52203;DHT22;38173;52.850;6.970;2023-03-29T14:53:06;13.20;99.90
52203;DHT22;38173;52.850;6.970;2023-03-29T14:55:32;13.10;99.90
52203;DHT22;38173;52.850;6.970;2023-03-29T14:57:58;13.00;99.90
52203;DHT22;38173;52.850;6.970;2023-03-29T15:00:29;13.00;99.90
52203;DHT22;38173;52.850;6.970;2023-03-29T15:03:00;13.00;99.90
52203;DHT22;38173;52.850;6.970;2023-03-29T15:05:34;12.90;99.90
52203;DHT22;38173;52.850;6.970;2023-03-29T15:08:00;12.90;99.90
52203;DHT22;38173;52.850;6.970;2023-03-29T15:10:26;13.00;99.90
52203;DHT22;38173;52.850;6.970;2023-03-29T15:12:55;13.00;99.90
52203;DHT22;38173;52.850;6.970;2023-03-29T15:15:22;13.20;99.90
52203;DHT22;38173;52.850;6.970;2023-03-29T15:17:48;13.30;99.90
52203;DHT22;38173;52.850;6.970;2023-03-29T15:22:50;13.50;99.90
52203;DHT22;38173;52.850;6.970;2023-03-29T15:25:17;13.60;99.90
52203;DHT22;38173;52.850;6.970;2023-03-29T15:27:43;13.70;99.90
52203;DHT22;38173;52.850;6.970;2023-03-29T15:30:15;13.70;99.90
52203;DHT22;38173;52.850;6.970;2023-03-29T15:32:49;13.70;99.90
52203;DHT22;38173;52.850;6.970;2023-03-29T15:35:21;13.60;99.90
52203;DHT22;38173;52.850;6.970;2023-03-29T15:37:48;13.40;99.90
52203;DHT22;38173;52.850;6.970;2023-03-29T15:40:14;13.20;99.90
52203;DHT22;38173;52.850;6.970;2023-03-29T15:42:40;13.10;99.90
52203;DHT22;38173;52.850;6.970;2023-03-29T15:45:13;13.10;99.90
52203;DHT22;38173;52.850;6.970;2023-03-29T15:47:39;13.00;99.90
52203;DHT22;38173;52.850;6.970;2023-03-29T15:50:05;12.80;99.90
52203;DHT22;38173;52.850;6.970;2023-03-29T15:52:31;12.80;99.90
52203;DHT22;38173;52.850;6.970;2023-03-29T15:54:57;12.70;99.90
52203;DHT22;38173;52.850;6.970;2023-03-29T15:57:23;12.60;99.90
52203;DHT22;38173;52.850;6.970;2023-03-29T15:59:48;12.50;99.90
52203;DHT22;38173;52.850;6.970;2023-03-29T16:02:21;12.50;99.90
52203;DHT22;38173;52.850;6.970;2023-03-29T16:04:48;12.40;99.90
52203;DHT22;38173;52.850;6.970;2023-03-29T16:07:14;12.40;99.90
52203;DHT22;38173;52.850;6.970;2023-03-29T16:09:40;12.30;99.90
52203;DHT22;38173;52.850;6.970;2023-03-29T16:12:07;12.20;99.90
52203;DHT22;38173;52.850;6.970;2023-03-29T16:14:32;12.20;99.90
52203;DHT22;38173;52.850;6.970;2023-03-29T16:17:03;12.10;99.90
52203;DHT22;38173;52.850;6.970;2023-03-29T16:19:35;12.00;99.90
52203;DHT22;38173;52.850;6.970;2023-03-29T16:22:01;12.00;99.90
52203;DHT22;38173;52.850;6.970;2023-03-29T16:24:29;12.00;99.90
52203;DHT22;38173;52.850;6.970;2023-03-29T16:26:56;11.90;99.90
52203;DHT22;38173;52.850;6.970;2023-03-29T16:29:23;11.80;99.90
52203;DHT22;38173;52.850;6.970;2023-03-29T16:31:49;11.80;99.90
52203;DHT22;38173;52.850;6.970;2023-03-29T16:34:15;11.80;99.90
52203;DHT22;38173;52.850;6.970;2023-03-29T16:36:43;11.70;99.90
52203;DHT22;38173;52.850;6.970;2023-03-29T16:39:12;11.70;99.90
52203;DHT22;38173;52.850;6.970;2023-03-29T16:41:38;11.70;99.90
52203;DHT22;38173;52.850;6.970;2023-03-29T16:44:05;11.70;99.90
52203;DHT22;38173;52.850;6.970;2023-03-29T16:46:31;11.70;99.90
52203;DHT22;38173;52.850;6.970;2023-03-29T16:48:57;11.60;99.90
52203;DHT22;38173;52.850;6.970;2023-03-29T16:51:23;11.60;99.90
52203;DHT22;38173;52.850;6.970;2023-03-29T16:53:49;11.60;99.90
52203;DHT22;38173;52.850;6.970;2023-03-29T16:56:24;11.60;99.90
52203;DHT22;38173;52.850;6.970;2023-03-29T16:58:52;11.50;99.90
52203;DHT22;38173;52.850;6.970;2023-03-29T17:01:21;11.50;99.90
52203;DHT22;38173;52.850;6.970;2023-03-29T17:03:50;11.40;99.90
52203;DHT22;38173;52.850;6.970;2023-03-29T17:06:16;11.40;99.90
52203;DHT22;38173;52.850;6.970;2023-03-29T17:08:42;11.30;99.90
52203;DHT22;38173;52.850;6.970;2023-03-29T17:11:07;11.30;99.90
52203;DHT22;38173;52.850;6.970;2023-03-29T17:13:33;11.20;99.90
52203;DHT22;38173;52.850;6.970;2023-03-29T17:15:59;11.10;99.90
52203;DHT22;38173;52.850;6.970;2023-03-29T17:18:25;11.10;99.90
52203;DHT22;38173;52.850;6.970;2023-03-29T17:20:51;11.10;99.90
52203;DHT22;38173;52.850;6.970;2023-03-29T17:23:18;11.10;99.90